Time;durP1;ratioP1;P1;durP2;ratioP2;P2;SDS_P1;SDS_P2;PMS_P1;PMS_P2;Temp;Humidity;BMP_temperature;BMP_pressure;BME280_temperature;BME280_humidity;BME280_pressure;Samples;Min_cycle;Max_cycle;Signal;HPM_P1;HPM_P2
2021/11/17 02:28:59;;;;;;;5.00;2.20;;;8.80;1.00;;;;;;5066850;28;20451;-80
2021/11/17 02:32:20;;;;;;;2.40;1.63;;;8.80;1.00;;;;;;5069444;28;20472;-80
2021/11/17 02:35:22;;;;;;;3.60;2.00;;;8.60;1.00;;;;;;5056120;28;20492;-81
2021/11/17 02:38:25;;;;;;;5.70;2.57;;;8.60;1.00;;;;;;5069066;28;20459;-80
2021/11/17 02:41:39;;;;;;;2.90;2.07;;;8.60;1.00;;;;;;5071945;28;21073;-81
2021/11/17 02:44:50;;;;;;;5.67;2.03;;;8.50;80.40;;;;;;5067717;28;20455;-80
2021/11/17 02:47:56;;;;;;;4.60;2.20;;;8.60;44.70;;;;;;5080569;28;20455;-79
2021/11/17 02:51:18;;;;;;;4.93;1.83;;;8.50;41.90;;;;;;5068940;28;20499;-80
2021/11/17 02:54:30;;;;;;;3.10;2.63;;;8.70;18.70;;;;;;5067839;28;20438;-80
2021/11/17 02:57:38;;;;;;;3.20;2.47;;;8.80;1.00;;;;;;5068996;28;20457;-80
2021/11/17 03:00:48;;;;;;;5.20;2.50;;;8.70;1.00;;;;;;5059898;28;20450;-80
2021/11/17 03:03:52;;;;;;;3.63;2.47;;;8.60;1.00;;;;;;5061091;28;21012;-82
2021/11/17 03:06:57;;;;;;;2.60;1.90;;;8.30;99.90;;;;;;5064461;28;20453;-79
2021/11/17 03:10:03;;;;;;;3.13;2.00;;;8.30;99.90;;;;;;5073237;28;20460;-79
2021/11/17 03:13:07;;;;;;;3.03;2.07;;;8.30;1.00;;;;;;5067780;28;20465;-79
2021/11/17 03:16:11;;;;;;;3.87;2.50;;;8.40;99.90;;;;;;5054298;28;20457;-81
2021/11/17 03:19:14;;;;;;;3.30;2.43;;;8.40;99.90;;;;;;5064992;28;20443;-80
2021/11/17 03:22:23;;;;;;;4.13;1.90;;;8.30;1.00;;;;;;5079031;28;21172;-80
2021/11/17 03:25:28;;;;;;;3.40;2.07;;;8.20;1.00;;;;;;5072809;28;20455;-79
2021/11/17 03:28:36;;;;;;;5.17;2.53;;;8.30;1.00;;;;;;5069110;28;20452;-81
2021/11/17 03:31:38;;;;;;;5.47;2.27;;;8.20;40.10;;;;;;5082163;28;20501;-80
2021/11/17 03:34:57;;;;;;;6.67;2.40;;;8.10;99.90;;;;;;5088914;28;20447;-80
2021/11/17 03:38:13;;;;;;;4.87;2.17;;;8.10;99.90;;;;;;5089546;28;20438;-80
2021/11/17 03:41:28;;;;;;;3.00;2.33;;;8.10;99.90;;;;;;5089014;28;20480;-81
2021/11/17 03:44:47;;;;;;;4.30;2.13;;;8.20;99.90;;;;;;5090323;28;20472;-80
2021/11/17 03:47:59;;;;;;;4.17;2.47;;;8.30;1.00;;;;;;5085672;28;20438;-80
2021/11/17 03:50:59;;;;;;;4.70;2.60;;;8.20;99.90;;;;;;5085078;28;20472;-79
2021/11/17 03:54:04;;;;;;;3.40;2.20;;;8.00;99.90;;;;;;5081663;28;20470;-80
2021/11/17 03:57:06;;;;;;;2.70;1.80;;;8.00;1.00;;;;;;5082663;28;20441;-81
2021/11/17 04:00:31;;;;;;;2.30;2.10;;;8.00;99.90;;;;;;5081954;28;21113;-79
2021/11/17 04:03:45;;;;;;;2.23;1.60;;;8.00;99.90;;;;;;5045634;28;20485;-81
2021/11/17 04:06:46;;;;;;;4.37;1.57;;;8.10;99.90;;;;;;5078207;28;20439;-80
2021/11/17 04:09:49;;;;;;;1.90;1.73;;;8.20;99.90;;;;;;5079092;28;20459;-81
2021/11/17 04:12:49;;;;;;;3.67;1.97;;;7.90;99.90;;;;;;5088023;28;20447;-82
2021/11/17 04:15:53;;;;;;;2.20;1.60;;;8.00;1.00;;;;;;5086273;28;20444;-80
2021/11/17 04:18:54;;;;;;;4.50;2.70;;;8.00;99.90;;;;;;5085819;28;20455;-82
2021/11/17 04:21:57;;;;;;;2.00;1.73;;;8.00;99.90;;;;;;5081838;28;20496;-80
2021/11/17 04:25:03;;;;;;;2.73;1.90;;;7.90;1.00;;;;;;5083758;28;20473;-80
2021/11/17 04:28:04;;;;;;;2.27;2.07;;;7.80;1.00;;;;;;5081404;28;20464;-81
2021/11/17 04:31:11;;;;;;;1.90;1.20;;;7.80;1.00;;;;;;5082205;28;21161;-81
2021/11/17 04:34:18;;;;;;;2.67;1.70;;;8.00;1.00;;;;;;5081460;28;20484;-81
2021/11/17 04:37:45;;;;;;;2.30;1.50;;;8.00;99.90;;;;;;5079309;28;20458;-81
2021/11/17 04:40:57;;;;;;;2.70;1.50;;;8.10;99.90;;;;;;5082095;28;21176;-80
2021/11/17 04:43:57;;;;;;;2.73;1.50;;;8.20;1.00;;;;;;5081077;28;20478;-81
2021/11/17 04:46:59;;;;;;;2.70;1.87;;;8.40;1.00;;;;;;5088366;28;20962;-80
2021/11/17 04:50:23;;;;;;;2.80;2.03;;;8.50;99.90;;;;;;5085058;28;20422;-80
2021/11/17 04:53:47;;;;;;;3.47;1.90;;;8.50;99.90;;;;;;5083508;28;20433;-81
2021/11/17 04:56:57;;;;;;;2.30;1.90;;;8.50;99.90;;;;;;5087426;28;21010;-81
2021/11/17 05:00:03;;;;;;;1.87;1.40;;;8.40;99.90;;;;;;5086344;28;20455;-80
2021/11/17 05:03:03;;;;;;;2.53;1.47;;;8.50;99.90;;;;;;5089456;28;20442;-82
2021/11/17 05:06:05;;;;;;;2.97;1.93;;;8.50;99.90;;;;;;5081225;28;20438;-82
2021/11/17 05:09:01;;;;;;;2.17;1.60;;;8.30;99.90;;;;;;5089895;28;20449;-81
2021/11/17 05:12:03;;;;;;;2.60;1.80;;;8.30;99.90;;;;;;5085575;28;20461;-82
2021/11/17 05:15:01;;;;;;;2.87;1.53;;;8.00;1.00;;;;;;5085332;28;20443;-81
2021/11/17 05:17:57;;;;;;;2.77;1.90;;;8.10;1.00;;;;;;5087836;28;20447;-86
2021/11/17 05:21:05;;;;;;;4.30;2.20;;;8.30;1.00;;;;;;5076124;28;20530;-86
2021/11/17 05:24:07;;;;;;;3.00;1.60;;;8.50;99.90;;;;;;5080155;28;20456;-85
2021/11/17 05:27:09;;;;;;;2.60;1.83;;;8.70;99.90;;;;;;5085376;28;20442;-82
2021/11/17 05:30:23;;;;;;;3.50;1.80;;;8.50;99.90;;;;;;5088191;28;20446;-83
2021/11/17 05:33:23;;;;;;;3.83;1.73;;;8.40;99.90;;;;;;5086950;28;21044;-81
2021/11/17 05:36:25;;;;;;;5.70;1.47;;;8.20;99.90;;;;;;5068835;28;20454;-78
2021/11/17 05:39:28;;;;;;;3.80;2.03;;;8.30;99.90;;;;;;5069296;28;20819;-79
2021/11/17 05:42:29;;;;;;;2.40;1.77;;;8.40;99.90;;;;;;5075453;28;20467;-78
2021/11/17 05:45:34;;;;;;;1.83;1.43;;;8.40;99.90;;;;;;5075741;28;20480;-79
2021/11/17 05:48:34;;;;;;;3.50;1.67;;;8.40;99.90;;;;;;5084595;28;20455;-79
2021/11/17 05:51:50;;;;;;;2.10;1.30;;;8.50;99.90;;;;;;5081136;28;20466;-78
2021/11/17 05:54:55;;;;;;;1.80;1.33;;;8.50;99.90;;;;;;5079444;28;20438;-77
2021/11/17 05:57:55;;;;;;;2.50;1.90;;;8.50;99.90;;;;;;5077610;28;20450;-78
2021/11/17 06:01:17;;;;;;;2.17;1.87;;;8.40;99.90;;;;;;5084608;28;20619;-78
2021/11/17 06:04:07;;;;;;;3.73;2.50;;;8.10;1.00;;;;;;5077275;28;20475;-78
2021/11/17 06:06:55;;;;;;;2.20;1.73;;;8.00;1.00;;;;;;5082496;28;20445;-78
2021/11/17 06:09:43;;;;;;;3.80;2.30;;;8.00;1.00;;;;;;5078822;28;20455;-78
2021/11/17 06:12:33;;;;;;;3.03;1.70;;;8.10;1.00;;;;;;5082176;28;20529;-79
2021/11/17 06:15:22;;;;;;;2.17;1.70;;;7.80;99.90;;;;;;5080830;28;20456;-79
2021/11/17 06:18:13;;;;;;;3.93;2.13;;;7.90;99.90;;;;;;5080508;28;20441;-78
2021/11/17 06:21:04;;;;;;;1.73;1.50;;;8.10;1.00;;;;;;5088158;28;21136;-79
2021/11/17 06:23:57;;;;;;;2.80;2.43;;;8.00;59.90;;;;;;5074496;28;21016;-78
2021/11/17 06:26:46;;;;;;;2.67;1.80;;;7.80;1.00;;;;;;5077812;28;21259;-78
2021/11/17 06:29:38;;;;;;;2.03;1.83;;;7.90;1.00;;;;;;5068311;28;20438;-78
2021/11/17 06:32:29;;;;;;;3.20;2.10;;;8.00;99.90;;;;;;5078370;28;20980;-78
2021/11/17 06:35:17;;;;;;;1.63;1.50;;;8.10;99.90;;;;;;5081504;28;20450;-78
2021/11/17 06:38:06;;;;;;;2.60;2.00;;;8.20;41.50;;;;;;5086142;28;21092;-77
2021/11/17 06:40:55;;;;;;;5.70;1.97;;;8.20;1.00;;;;;;5075216;28;20446;-77
2021/11/17 06:43:44;;;;;;;3.10;2.20;;;8.10;83.70;;;;;;5073690;28;20444;-78
2021/11/17 06:46:34;;;;;;;3.13;2.07;;;8.10;99.90;;;;;;5075223;28;20200;-78
2021/11/17 06:49:22;;;;;;;2.63;2.30;;;8.30;99.90;;;;;;5077942;28;20961;-79
2021/11/17 06:52:11;;;;;;;2.77;2.57;;;8.10;1.00;;;;;;5071069;28;20459;-78
2021/11/17 06:55:00;;;;;;;2.30;2.10;;;7.80;1.00;;;;;;5078212;28;20481;-78
2021/11/17 06:57:48;;;;;;;2.20;1.63;;;7.80;1.00;;;;;;5083363;28;20305;-78
2021/11/17 07:00:40;;;;;;;2.70;1.63;;;8.00;99.90;;;;;;5079892;28;21208;-78
2021/11/17 07:03:30;;;;;;;3.30;2.40;;;8.00;1.00;;;;;;5076433;28;20497;-78
2021/11/17 07:06:19;;;;;;;3.50;2.13;;;7.70;1.00;;;;;;5082033;28;20804;-78
2021/11/17 07:09:09;;;;;;;3.10;1.63;;;7.50;1.00;;;;;;5078985;28;20849;-77
2021/11/17 07:11:58;;;;;;;2.87;2.00;;;7.40;99.90;;;;;;5087200;28;20484;-78
2021/11/17 07:14:47;;;;;;;3.10;2.33;;;7.60;1.00;;;;;;5085273;28;20426;-78
2021/11/17 07:17:36;;;;;;;3.33;1.83;;;7.70;99.90;;;;;;5078228;28;20437;-79
2021/11/17 07:20:26;;;;;;;5.13;2.67;;;7.70;99.90;;;;;;5086110;28;20942;-78
2021/11/17 07:23:16;;;;;;;2.70;2.00;;;7.60;1.00;;;;;;5072282;28;20463;-78
2021/11/17 07:26:05;;;;;;;1.97;1.80;;;7.80;99.90;;;;;;5086867;28;20471;-77
2021/11/17 07:28:54;;;;;;;1.87;1.40;;;7.80;1.00;;;;;;5072582;28;20471;-79
2021/11/17 07:31:43;;;;;;;7.10;1.60;;;7.80;99.90;;;;;;5087012;28;20469;-78
2021/11/17 07:34:31;;;;;;;2.40;1.87;;;8.00;45.50;;;;;;5076425;28;20439;-77
2021/11/17 07:37:21;;;;;;;3.53;2.20;;;8.00;1.00;;;;;;5080176;28;20443;-78
2021/11/17 07:40:12;;;;;;;4.67;2.03;;;8.10;1.00;;;;;;5076050;28;20428;-77
2021/11/17 07:43:01;;;;;;;2.43;1.80;;;8.30;99.90;;;;;;5080841;28;20486;-78
2021/11/17 07:45:49;;;;;;;2.97;1.90;;;8.40;22.50;;;;;;5079623;28;20995;-78
2021/11/17 07:48:39;;;;;;;2.30;1.87;;;8.50;1.00;;;;;;5079121;28;20507;-77
2021/11/17 07:51:27;;;;;;;4.30;1.90;;;8.60;1.00;;;;;;5071613;28;20838;-79
2021/11/17 07:54:19;;;;;;;4.17;2.80;;;8.50;1.00;;;;;;5076769;28;20447;-78
2021/11/17 07:57:09;;;;;;;2.50;1.70;;;8.40;1.00;;;;;;5079768;28;20969;-79
2021/11/17 07:59:58;;;;;;;3.17;2.17;;;8.40;1.00;;;;;;5074186;28;20436;-78
2021/11/17 08:02:47;;;;;;;3.30;2.60;;;8.50;1.00;;;;;;5079391;28;20456;-77
2021/11/17 08:05:38;;;;;;;1.93;1.60;;;8.60;99.90;;;;;;5081518;28;20621;-78
2021/11/17 08:08:30;;;;;;;2.20;1.70;;;8.60;99.90;;;;;;5080072;28;20435;-78
2021/11/17 08:11:21;;;;;;;3.37;1.80;;;8.60;99.90;;;;;;5069457;28;20450;-77
2021/11/17 08:14:10;;;;;;;2.33;1.43;;;8.60;99.90;;;;;;5074250;28;20434;-78
2021/11/17 08:16:59;;;;;;;2.27;1.50;;;8.60;99.90;;;;;;5072466;28;20976;-78
2021/11/17 08:19:48;;;;;;;1.63;1.50;;;8.60;99.90;;;;;;5084416;28;20536;-78
2021/11/17 08:22:37;;;;;;;1.37;1.20;;;8.60;99.90;;;;;;5082868;28;20459;-78
2021/11/17 08:25:27;;;;;;;2.27;1.57;;;8.60;99.90;;;;;;5089286;28;20494;-78
2021/11/17 08:28:17;;;;;;;2.67;1.30;;;8.60;99.90;;;;;;5082248;28;20455;-78
2021/11/17 08:31:06;;;;;;;2.20;1.60;;;8.60;99.90;;;;;;5085710;28;20597;-78
2021/11/17 08:33:55;;;;;;;2.80;1.40;;;8.40;99.90;;;;;;5088270;28;20939;-77
2021/11/17 08:36:44;;;;;;;1.93;1.10;;;8.50;99.90;;;;;;5083656;28;20447;-77
2021/11/17 08:39:32;;;;;;;1.60;1.10;;;8.50;99.90;;;;;;5086795;28;20439;-78
2021/11/17 08:42:21;;;;;;;1.23;1.10;;;8.50;99.90;;;;;;5085298;28;20478;-78
2021/11/17 08:45:12;;;;;;;1.30;1.13;;;8.50;99.90;;;;;;5072712;28;20492;-78
2021/11/17 08:48:01;;;;;;;1.50;1.40;;;8.40;99.90;;;;;;5083387;28;20453;-78
2021/11/17 08:50:50;;;;;;;3.70;1.30;;;8.30;99.90;;;;;;5078966;28;20510;-78
2021/11/17 08:53:44;;;;;;;1.73;1.17;;;8.50;99.90;;;;;;5079162;28;20448;-78
2021/11/17 08:56:34;;;;;;;1.57;1.10;;;8.50;99.90;;;;;;5084608;28;21263;-78
2021/11/17 08:59:23;;;;;;;1.00;1.00;;;8.40;99.90;;;;;;5077351;28;20433;-79
2021/11/17 09:02:14;;;;;;;1.80;1.57;;;8.60;99.90;;;;;;5078424;28;20480;-78
2021/11/17 09:05:03;;;;;;;1.30;1.20;;;8.60;99.90;;;;;;5083704;28;20986;-78
2021/11/17 09:07:52;;;;;;;1.33;1.10;;;8.70;99.90;;;;;;5086332;28;20442;-77
2021/11/17 09:10:43;;;;;;;1.13;1.03;;;8.70;95.10;;;;;;5076560;28;20465;-78
2021/11/17 09:13:31;;;;;;;1.57;1.13;;;8.70;58.20;;;;;;5085972;28;20467;-80
2021/11/17 09:16:20;;;;;;;1.10;1.00;;;8.80;26.00;;;;;;5080490;28;20423;-79
2021/11/17 09:19:11;;;;;;;1.57;0.90;;;8.80;1.00;;;;;;5073967;28;20932;-79
2021/11/17 09:22:00;;;;;;;11.80;1.30;;;8.80;1.00;;;;;;5077145;28;21024;-78
2021/11/17 09:24:49;;;;;;;0.93;0.90;;;8.80;1.00;;;;;;5086179;28;20946;-78
2021/11/17 09:27:39;;;;;;;1.07;0.97;;;8.70;1.00;;;;;;5078832;28;20428;-79
2021/11/17 09:30:30;;;;;;;1.00;0.90;;;8.60;1.00;;;;;;5088110;28;20430;-78
2021/11/17 09:33:22;;;;;;;1.27;1.00;;;8.60;1.00;;;;;;5085936;28;20938;-78
2021/11/17 09:36:12;;;;;;;1.27;1.17;;;8.70;1.00;;;;;;5073012;28;20440;-79
2021/11/17 09:39:00;;;;;;;2.70;1.40;;;8.70;1.00;;;;;;5075065;28;20492;-78
2021/11/17 09:41:54;;;;;;;1.50;1.03;;;8.80;1.00;;;;;;5082232;28;20476;-78
2021/11/17 09:44:44;;;;;;;1.47;1.00;;;8.70;1.00;;;;;;5082268;28;20440;-78
2021/11/17 09:47:34;;;;;;;1.50;0.93;;;8.60;1.00;;;;;;5089795;28;20440;-77
2021/11/17 09:50:30;;;;;;;1.63;1.20;;;8.50;1.00;;;;;;5087016;28;20439;-77
2021/11/17 09:53:23;;;;;;;1.60;1.10;;;8.40;67.90;;;;;;5079271;28;20443;-77
2021/11/17 09:56:16;;;;;;;0.83;0.83;;;8.50;12.70;;;;;;5075870;28;20429;-77
2021/11/17 09:59:10;;;;;;;1.10;1.10;;;8.40;1.00;;;;;;5089098;28;20440;-78
2021/11/17 10:02:04;;;;;;;1.60;0.80;;;8.40;64.90;;;;;;5084316;28;20975;-78
2021/11/17 10:05:01;;;;;;;1.20;1.10;;;8.60;1.00;;;;;;5082458;28;20944;-77
2021/11/17 10:08:17;;;;;;;2.23;1.20;;;8.70;1.00;;;;;;5080533;28;20462;-78
2021/11/17 10:11:21;;;;;;;1.33;1.00;;;8.70;1.00;;;;;;5084754;28;20462;-77
2021/11/17 10:14:22;;;;;;;1.07;0.80;;;8.70;1.00;;;;;;5087608;28;20552;-78
2021/11/17 10:17:43;;;;;;;3.20;1.20;;;8.70;1.00;;;;;;5080664;28;20437;-78
2021/11/17 10:20:36;;;;;;;1.23;1.13;;;8.80;1.00;;;;;;5079910;28;20506;-78
2021/11/17 10:23:27;;;;;;;1.27;1.10;;;8.70;1.00;;;;;;5081169;28;20516;-79
2021/11/17 10:26:17;;;;;;;1.60;0.90;;;8.70;1.00;;;;;;5074953;28;20513;-79
2021/11/17 10:29:22;;;;;;;1.33;0.97;;;8.70;1.00;;;;;;5084559;28;20909;-79
2021/11/17 10:32:32;;;;;;;1.50;1.07;;;8.80;1.00;;;;;;5082030;28;20466;-78
2021/11/17 10:35:27;;;;;;;1.27;0.90;;;8.70;1.00;;;;;;5087351;28;20790;-79
2021/11/17 10:38:20;;;;;;;1.10;1.00;;;8.80;1.00;;;;;;5077093;28;20455;-78
2021/11/17 10:41:22;;;;;;;4.17;1.40;;;8.80;1.00;;;;;;5072910;28;20453;-79
2021/11/17 10:44:11;;;;;;;1.83;1.13;;;8.70;1.00;;;;;;5076862;28;20443;-79
2021/11/17 10:47:00;;;;;;;1.47;0.80;;;8.70;1.00;;;;;;5086742;28;20479;-79
2021/11/17 10:49:52;;;;;;;1.70;0.70;;;8.60;99.90;;;;;;5079326;28;20435;-79
2021/11/17 10:52:46;;;;;;;0.90;0.80;;;8.70;99.90;;;;;;5088013;28;20430;-79
2021/11/17 10:55:39;;;;;;;0.90;0.70;;;8.60;99.90;;;;;;5086852;28;20515;-78
2021/11/17 10:58:33;;;;;;;0.93;0.90;;;8.70;99.90;;;;;;5084682;28;20444;-78
2021/11/17 11:01:26;;;;;;;0.60;0.60;;;8.70;99.90;;;;;;5075624;28;20463;-79
2021/11/17 11:04:19;;;;;;;0.80;0.70;;;8.60;99.90;;;;;;5079415;28;20487;-78
2021/11/17 11:07:15;;;;;;;0.70;0.70;;;8.60;99.90;;;;;;5077580;28;20471;-78
2021/11/17 11:10:17;;;;;;;0.83;0.77;;;8.60;99.90;;;;;;5071767;28;20445;-79
2021/11/17 11:13:10;;;;;;;1.00;0.70;;;8.70;99.90;;;;;;5078404;28;20463;-78
2021/11/17 11:16:02;;;;;;;0.70;0.60;;;8.70;99.90;;;;;;5081650;28;20457;-78
2021/11/17 11:18:55;;;;;;;1.13;0.77;;;8.40;99.90;;;;;;5077527;28;20464;-78
2021/11/17 11:22:15;;;;;;;0.80;0.50;;;8.40;99.90;;;;;;5071010;28;20476;-79
2021/11/17 11:25:39;;;;;;;0.80;0.80;;;8.60;99.90;;;;;;5067515;28;20793;-78
2021/11/17 11:28:32;;;;;;;1.20;0.80;;;8.90;99.90;;;;;;5069349;28;20438;-79
2021/11/17 11:31:31;;;;;;;1.00;0.90;;;8.90;99.90;;;;;;5080343;28;20229;-77
2021/11/17 11:34:39;;;;;;;1.10;1.00;;;8.80;99.90;;;;;;5085354;28;20445;-78
2021/11/17 11:38:00;;;;;;;0.80;0.80;;;8.90;99.90;;;;;;5082817;28;20416;-78
2021/11/17 11:41:19;;;;;;;2.00;0.93;;;8.90;99.90;;;;;;5042767;28;20230;-79
2021/11/17 11:44:34;;;;;;;0.90;0.90;;;8.80;99.90;;;;;;5073435;28;20517;-79
2021/11/17 11:47:51;;;;;;;1.93;1.63;;;8.90;99.90;;;;;;5072344;28;20461;-78
2021/11/17 11:50:54;;;;;;;2.30;0.90;;;8.90;99.90;;;;;;5083320;28;20933;-79
2021/11/17 11:54:11;;;;;;;1.83;1.03;;;8.90;99.90;;;;;;5068767;28;20459;-79
2021/11/17 11:57:29;;;;;;;1.03;0.87;;;8.90;99.90;;;;;;5079492;28;21036;-79
2021/11/17 12:00:23;;;;;;;0.80;0.80;;;8.90;99.90;;;;;;5068176;28;21382;-79
2021/11/17 12:03:14;;;;;;;0.70;0.70;;;8.90;99.90;;;;;;5057809;28;20457;-79
2021/11/17 12:06:07;;;;;;;1.10;0.80;;;9.00;99.90;;;;;;5065795;28;20451;-78
2021/11/17 12:09:02;;;;;;;1.70;0.93;;;9.00;99.90;;;;;;5063691;28;20439;-79
2021/11/17 12:11:54;;;;;;;1.57;1.13;;;9.00;99.90;;;;;;5054836;28;20463;-78
2021/11/17 12:14:47;;;;;;;1.27;0.87;;;8.90;99.90;;;;;;5066573;28;20955;-78
2021/11/17 12:17:37;;;;;;;3.07;0.90;;;9.00;99.90;;;;;;5058230;28;21143;-78
2021/11/17 12:20:30;;;;;;;1.50;1.00;;;9.00;99.90;;;;;;5058009;28;21334;-79
2021/11/17 12:23:24;;;;;;;1.50;1.07;;;9.00;99.90;;;;;;5055123;28;20450;-79
2021/11/17 12:26:19;;;;;;;1.00;0.90;;;8.90;99.90;;;;;;5063089;28;20432;-78
2021/11/17 12:29:14;;;;;;;1.00;0.70;;;9.00;99.90;;;;;;5061129;28;20456;-78
2021/11/17 12:32:08;;;;;;;1.30;1.20;;;8.90;99.90;;;;;;5067379;28;20494;-77
2021/11/17 12:35:10;;;;;;;1.23;0.80;;;8.80;99.90;;;;;;5063999;28;20462;-78
2021/11/17 12:38:03;;;;;;;0.77;0.67;;;8.80;99.90;;;;;;5066712;28;20448;-78
2021/11/17 12:40:54;;;;;;;0.73;0.60;;;8.90;99.90;;;;;;5065854;28;20451;-79
2021/11/17 12:43:44;;;;;;;0.87;0.87;;;9.00;99.90;;;;;;5062425;28;20434;-79
2021/11/17 12:46:37;;;;;;;1.10;0.60;;;9.00;99.90;;;;;;5066536;28;20452;-80
2021/11/17 12:49:28;;;;;;;0.70;0.60;;;9.10;99.90;;;;;;5069965;28;20437;-78
2021/11/17 12:52:22;;;;;;;1.00;0.80;;;9.10;99.90;;;;;;5068630;28;21018;-78
2021/11/17 12:55:17;;;;;;;1.23;0.70;;;9.10;99.90;;;;;;5053139;28;20452;-79
2021/11/17 12:58:10;;;;;;;0.90;0.80;;;9.00;99.90;;;;;;5058658;28;21118;-79
2021/11/17 13:01:15;;;;;;;0.80;0.70;;;9.00;99.90;;;;;;5062070;28;21006;-78
2021/11/17 13:04:17;;;;;;;0.60;0.60;;;8.90;99.90;;;;;;5054434;28;20857;-78
2021/11/17 13:07:08;;;;;;;0.70;0.70;;;9.00;99.90;;;;;;5061932;28;20484;-79
2021/11/17 13:10:00;;;;;;;0.63;0.63;;;9.00;99.90;;;;;;5065649;28;20483;-78
2021/11/17 13:12:59;;;;;;;0.93;0.80;;;9.00;99.90;;;;;;5069624;28;20436;-79
2021/11/17 13:15:59;;;;;;;1.23;0.90;;;9.00;99.90;;;;;;5069409;28;20512;-78
2021/11/17 13:18:57;;;;;;;1.03;0.77;;;9.00;99.90;;;;;;5066383;28;20764;-79
2021/11/17 13:21:53;;;;;;;0.70;0.70;;;9.00;99.90;;;;;;5060513;28;20469;-78
2021/11/17 13:24:44;;;;;;;0.63;0.63;;;8.80;99.90;;;;;;5063342;28;20435;-79
2021/11/17 13:27:41;;;;;;;0.73;0.70;;;9.00;99.90;;;;;;5053638;28;20617;-78
2021/11/17 13:30:42;;;;;;;1.03;0.77;;;9.00;99.90;;;;;;5053154;28;20438;-79
2021/11/17 13:33:32;;;;;;;0.60;0.60;;;9.00;99.90;;;;;;5060737;28;20435;-78
2021/11/17 13:36:40;;;;;;;0.80;0.80;;;9.00;99.90;;;;;;5060275;28;20452;-79
2021/11/17 13:39:29;;;;;;;1.90;0.80;;;9.00;99.90;;;;;;5067982;28;20835;-78
2021/11/17 13:42:17;;;;;;;1.00;0.90;;;9.10;99.90;;;;;;5060639;28;20454;-78
2021/11/17 13:45:11;;;;;;;1.30;1.20;;;9.10;99.90;;;;;;5064112;28;20211;-79
2021/11/17 13:48:00;;;;;;;1.20;0.90;;;9.10;99.90;;;;;;5056935;28;20479;-78
2021/11/17 13:50:50;;;;;;;1.10;1.00;;;9.20;99.90;;;;;;5058801;28;20478;-77
2021/11/17 13:53:38;;;;;;;0.83;0.80;;;9.10;99.90;;;;;;5062741;28;20515;-77
2021/11/17 13:56:37;;;;;;;1.30;1.10;;;8.90;99.90;;;;;;5057329;28;20565;-79
2021/11/17 13:59:25;;;;;;;1.10;1.00;;;9.00;99.90;;;;;;5051261;28;20475;-78
2021/11/17 14:02:16;;;;;;;1.50;0.90;;;9.10;99.90;;;;;;5045715;28;20855;-78
2021/11/17 14:05:06;;;;;;;1.37;1.10;;;9.10;99.90;;;;;;5048165;28;20449;-78
2021/11/17 14:07:55;;;;;;;2.73;1.47;;;9.10;99.90;;;;;;5058484;28;20460;-77
2021/11/17 14:10:44;;;;;;;2.00;1.10;;;9.00;99.90;;;;;;5077603;28;20502;-79
2021/11/17 14:13:32;;;;;;;0.90;0.90;;;9.10;99.90;;;;;;5079027;28;20544;-78
2021/11/17 14:16:21;;;;;;;3.33;1.20;;;9.00;99.90;;;;;;5062530;28;20991;-81
2021/11/17 14:19:11;;;;;;;0.80;0.80;;;8.90;99.90;;;;;;5057263;28;20483;-81
2021/11/17 14:22:01;;;;;;;1.63;1.20;;;8.90;99.90;;;;;;5047261;28;20481;-78
2021/11/17 14:24:51;;;;;;;1.53;1.33;;;8.90;99.90;;;;;;5051935;28;20448;-78
2021/11/17 14:27:43;;;;;;;2.23;1.60;;;8.90;99.90;;;;;;5056307;28;20473;-78
2021/11/17 14:30:40;;;;;;;2.40;1.33;;;9.00;99.90;;;;;;5059147;28;20560;-78
2021/11/17 14:33:32;;;;;;;1.57;1.47;;;9.00;99.90;;;;;;5061993;28;20471;-78
2021/11/17 14:36:24;;;;;;;4.30;2.23;;;9.10;99.90;;;;;;5063897;28;20449;-77
2021/11/17 14:39:14;;;;;;;3.07;1.37;;;9.00;99.90;;;;;;5054214;28;21073;-78
2021/11/17 14:42:03;;;;;;;1.57;1.00;;;8.80;99.90;;;;;;5060024;28;20516;-77
2021/11/17 14:44:52;;;;;;;2.90;1.20;;;8.80;99.90;;;;;;5063435;28;20457;-78
2021/11/17 14:47:41;;;;;;;1.77;0.90;;;8.80;99.90;;;;;;5067550;28;21140;-78
2021/11/17 14:50:30;;;;;;;1.30;1.20;;;8.90;99.90;;;;;;5066692;28;20437;-79
2021/11/17 14:53:21;;;;;;;1.30;1.20;;;9.10;99.90;;;;;;5065903;28;20428;-78
2021/11/17 14:56:10;;;;;;;2.00;1.03;;;9.10;99.90;;;;;;5065285;28;20466;-78
2021/11/17 14:58:59;;;;;;;3.53;1.20;;;8.90;99.90;;;;;;5064409;28;20441;-78
2021/11/17 15:01:47;;;;;;;1.80;1.00;;;8.80;99.90;;;;;;5060212;28;20478;-79
2021/11/17 15:04:36;;;;;;;1.13;1.10;;;8.80;99.90;;;;;;5056410;28;20215;-77
2021/11/17 15:07:25;;;;;;;1.13;1.07;;;8.90;99.90;;;;;;5053948;28;20459;-79
2021/11/17 15:10:16;;;;;;;1.43;1.10;;;9.00;99.90;;;;;;5062196;28;20470;-78
2021/11/17 15:13:09;;;;;;;1.30;1.20;;;9.00;99.90;;;;;;5049359;28;20458;-80
2021/11/17 15:15:58;;;;;;;1.80;1.33;;;9.10;99.90;;;;;;5051250;28;20469;-79
2021/11/17 15:18:48;;;;;;;1.43;0.93;;;9.00;99.90;;;;;;5063813;28;20990;-79
2021/11/17 15:21:37;;;;;;;2.50;1.10;;;8.90;99.90;;;;;;5066508;28;20468;-79
2021/11/17 15:24:27;;;;;;;1.23;0.80;;;8.90;99.90;;;;;;5067894;28;20935;-79
2021/11/17 15:27:32;;;;;;;1.70;1.38;;;9.00;99.90;;;;;;5057608;28;20450;-78
2021/11/17 15:30:23;;;;;;;2.90;1.40;;;9.10;99.90;;;;;;5056454;28;20279;-79
2021/11/17 15:33:12;;;;;;;1.40;1.30;;;9.30;99.90;;;;;;5056563;28;20437;-80
2021/11/17 15:36:01;;;;;;;3.20;1.83;;;9.20;99.90;;;;;;5055373;28;20453;-79
2021/11/17 15:38:51;;;;;;;3.60;1.20;;;9.20;99.90;;;;;;5052708;28;20450;-79
2021/11/17 15:41:41;;;;;;;2.53;1.57;;;9.20;99.90;;;;;;5049399;28;20483;-79
2021/11/17 15:44:31;;;;;;;1.83;1.23;;;9.20;99.90;;;;;;5064786;28;20469;-80
2021/11/17 15:47:24;;;;;;;2.13;1.60;;;9.30;99.90;;;;;;5068557;28;20991;-79
2021/11/17 15:50:15;;;;;;;1.73;1.40;;;9.30;99.90;;;;;;5067132;28;20512;-79
2021/11/17 15:53:04;;;;;;;1.20;1.10;;;9.30;99.90;;;;;;5054376;28;20440;-79
2021/11/17 15:55:54;;;;;;;1.60;1.50;;;9.30;99.90;;;;;;5062993;28;20451;-81
2021/11/17 15:58:43;;;;;;;1.30;1.10;;;9.30;99.90;;;;;;5052019;28;20612;-79
2021/11/17 16:01:33;;;;;;;1.57;1.20;;;9.40;99.90;;;;;;5060333;28;20464;-79
2021/11/17 16:04:22;;;;;;;2.90;1.13;;;9.30;99.90;;;;;;5067856;28;20428;-80
2021/11/17 16:07:14;;;;;;;1.20;1.00;;;9.30;99.90;;;;;;5063475;28;20446;-79
2021/11/17 16:10:06;;;;;;;1.30;1.10;;;9.20;99.90;;;;;;5061973;28;20477;-78
2021/11/17 16:12:55;;;;;;;1.80;1.10;;;9.20;99.90;;;;;;5049065;28;20459;-80
2021/11/17 16:15:43;;;;;;;1.30;1.10;;;9.10;99.90;;;;;;5063486;28;20449;-79
2021/11/17 16:18:34;;;;;;;1.27;1.13;;;9.00;99.90;;;;;;5060319;28;20565;-79
2021/11/17 16:21:23;;;;;;;0.90;0.80;;;9.00;99.90;;;;;;5058167;28;20508;-79
2021/11/17 16:27:19;;;;;;;1.40;1.30;;;9.10;99.90;;;;;;5059562;28;20452;-76
2021/11/17 16:30:12;;;;;;;1.20;0.93;;;8.80;99.90;;;;;;5055705;28;20524;-79
2021/11/17 16:33:00;;;;;;;1.27;1.13;;;8.70;99.90;;;;;;5057548;28;20454;-79
2021/11/17 16:35:51;;;;;;;1.10;0.90;;;8.60;99.90;;;;;;5056450;28;20479;-78
2021/11/17 16:38:43;;;;;;;2.70;1.70;;;8.40;99.90;;;;;;5058956;28;20789;-77
2021/11/17 16:41:31;;;;;;;1.63;1.30;;;8.40;99.90;;;;;;5065837;28;20454;-78
2021/11/17 16:44:20;;;;;;;1.83;1.20;;;8.50;99.90;;;;;;5059484;28;20462;-79
2021/11/17 16:47:09;;;;;;;1.20;1.10;;;8.40;99.90;;;;;;5061930;28;20444;-80
2021/11/17 16:49:58;;;;;;;2.43;1.70;;;8.40;99.90;;;;;;5066458;28;21332;-79
2021/11/17 16:52:49;;;;;;;1.43;1.00;;;8.50;99.90;;;;;;5064299;28;20456;-82
2021/11/17 16:55:58;;;;;;;2.80;1.43;;;8.50;99.90;;;;;;5071650;28;20796;-79
2021/11/17 16:58:47;;;;;;;1.97;1.10;;;8.60;99.90;;;;;;5074807;28;20466;-81
2021/11/17 17:01:35;;;;;;;2.13;1.50;;;8.70;99.90;;;;;;5066477;28;20453;-80
2021/11/17 17:04:24;;;;;;;2.23;1.40;;;8.90;99.90;;;;;;5057539;28;20450;-80
2021/11/17 17:07:14;;;;;;;1.60;1.40;;;8.90;99.90;;;;;;5062171;28;20439;-78
2021/11/17 17:10:05;;;;;;;1.80;1.40;;;8.80;99.90;;;;;;5054711;28;21125;-78
2021/11/17 17:12:54;;;;;;;1.40;1.30;;;8.80;99.90;;;;;;5063622;28;20439;-78
2021/11/17 17:15:44;;;;;;;2.97;1.70;;;8.90;99.90;;;;;;5063504;28;20988;-79
2021/11/17 17:18:32;;;;;;;1.73;1.63;;;8.80;99.90;;;;;;5059571;28;20452;-79
2021/11/17 17:21:21;;;;;;;2.00;1.43;;;8.90;99.90;;;;;;5066093;28;20463;-79
2021/11/17 17:24:10;;;;;;;1.50;1.40;;;8.80;99.90;;;;;;5055971;28;20435;-78
2021/11/17 17:27:00;;;;;;;1.27;1.17;;;8.70;99.90;;;;;;5061597;28;20442;-79
2021/11/17 17:29:48;;;;;;;1.07;0.97;;;8.70;99.90;;;;;;5066786;28;20475;-77
2021/11/17 17:32:37;;;;;;;3.73;1.30;;;8.60;99.90;;;;;;5058446;28;20467;-79
2021/11/17 17:35:26;;;;;;;2.30;1.30;;;8.30;99.90;;;;;;5064610;28;20445;-79
2021/11/17 17:38:15;;;;;;;1.80;1.13;;;8.10;99.90;;;;;;5064779;28;20966;-79
2021/11/17 17:41:04;;;;;;;3.33;1.27;;;8.20;99.90;;;;;;5067410;28;20453;-79
2021/11/17 17:43:57;;;;;;;1.77;1.20;;;8.40;99.90;;;;;;5059348;28;20932;-79
2021/11/17 17:46:46;;;;;;;5.03;2.27;;;8.30;99.90;;;;;;5066564;28;20460;-79
2021/11/17 17:49:36;;;;;;;1.83;1.40;;;8.40;99.90;;;;;;5061227;28;20551;-79
2021/11/17 17:52:27;;;;;;;2.70;1.60;;;8.50;99.90;;;;;;5065032;28;20535;-79
2021/11/17 17:55:17;;;;;;;1.90;1.13;;;8.30;99.90;;;;;;5049937;28;20438;-80
2021/11/17 17:58:06;;;;;;;1.90;1.30;;;8.30;99.90;;;;;;5063044;28;20448;-78
2021/11/17 18:00:58;;;;;;;3.73;1.60;;;8.30;99.90;;;;;;5065065;28;20473;-79